createdAt,value
2022-12-18T00:00:04.069Z,43.7
2022-12-18T00:01:07.148Z,43.7
2022-12-18T00:02:04.243Z,43.8
2022-12-18T00:03:04.176Z,43.8
2022-12-18T00:04:04.193Z,43.8
2022-12-18T00:05:04.103Z,43.8
2022-12-18T00:06:04.129Z,43.9
2022-12-18T00:07:04.166Z,43.9
2022-12-18T00:08:04.154Z,44.0
2022-12-18T00:09:04.120Z,44.0
2022-12-18T00:10:04.065Z,44.0
2022-12-18T00:11:07.052Z,44.1
2022-12-18T00:13:08.225Z,44.2
2022-12-18T00:14:05.189Z,44.3
2022-12-18T00:15:04.124Z,44.3
2022-12-18T00:16:04.142Z,44.2
2022-12-18T00:17:04.282Z,44.1
2022-12-18T00:18:04.094Z,44.0
2022-12-18T00:19:04.107Z,44.1
2022-12-18T00:20:04.124Z,44.0
2022-12-18T00:21:04.133Z,43.9
2022-12-18T00:22:04.099Z,43.8
2022-12-18T00:23:04.134Z,43.8
2022-12-18T00:24:04.233Z,43.6
2022-12-18T00:25:04.255Z,43.4
2022-12-18T00:26:04.301Z,43.3
2022-12-18T00:28:43.094Z,43.1
2022-12-18T00:28:47.266Z,44.6
2022-12-18T00:29:05.640Z,43.5
2022-12-18T00:30:04.077Z,42.8
2022-12-18T00:31:04.105Z,42.6
2022-12-18T00:32:04.213Z,42.4
2022-12-18T00:33:11.154Z,42.3
2022-12-18T00:34:10.651Z,42.2
2022-12-18T00:35:04.372Z,42.0
2022-12-18T00:36:04.367Z,41.9
2022-12-18T00:37:04.324Z,41.8
2022-12-18T00:38:04.409Z,41.8
2022-12-18T00:39:04.327Z,41.7
2022-12-18T00:40:04.363Z,41.6
2022-12-18T00:41:04.342Z,41.6
2022-12-18T00:42:05.382Z,41.5
2022-12-18T00:43:04.375Z,41.5
2022-12-18T00:44:04.384Z,41.5
2022-12-18T00:45:09.023Z,41.4
2022-12-18T00:46:05.126Z,41.5
2022-12-18T00:47:04.340Z,41.4
2022-12-18T00:48:04.358Z,41.4
2022-12-18T00:49:04.343Z,41.4
2022-12-18T00:50:04.406Z,41.4
2022-12-18T00:51:04.337Z,41.3
2022-12-18T00:52:04.530Z,41.3
2022-12-18T00:53:04.352Z,41.3
2022-12-18T00:54:04.378Z,41.3
2022-12-18T00:55:06.411Z,41.3
2022-12-18T00:56:04.393Z,41.4
2022-12-18T00:57:04.327Z,41.3
2022-12-18T00:58:04.363Z,41.3
2022-12-18T00:59:04.360Z,41.4
2022-12-18T01:00:04.365Z,41.4
2022-12-18T01:01:04.394Z,41.5
2022-12-18T01:02:04.560Z,41.4
2022-12-18T01:03:04.399Z,41.4
2022-12-18T01:04:04.452Z,41.5
2022-12-18T01:05:04.457Z,41.5
2022-12-18T01:06:04.359Z,41.5
2022-12-18T01:07:04.330Z,41.6
2022-12-18T01:08:04.447Z,41.7
2022-12-18T01:09:04.352Z,41.7
2022-12-18T01:10:04.395Z,41.8
2022-12-18T01:11:04.344Z,41.8
2022-12-18T01:12:04.582Z,41.8
2022-12-18T01:13:04.339Z,41.8
2022-12-18T01:14:06.581Z,42.0
2022-12-18T01:15:04.561Z,42.0
2022-12-18T01:16:04.415Z,42.1
2022-12-18T01:17:04.339Z,42.1
2022-12-18T01:18:04.392Z,42.1
2022-12-18T01:19:04.352Z,42.2
2022-12-18T01:20:04.401Z,42.2
2022-12-18T01:21:04.352Z,42.3
2022-12-18T01:23:46.355Z,42.3
2022-12-18T01:23:50.333Z,44.6
2022-12-18T01:24:04.386Z,43.4
2022-12-18T01:25:04.403Z,42.7
2022-12-18T01:26:04.399Z,42.6
2022-12-18T01:27:04.347Z,42.7
2022-12-18T01:28:04.410Z,42.7
2022-12-18T01:29:04.357Z,42.7
2022-12-18T01:30:04.368Z,42.7
2022-12-18T01:31:04.330Z,42.7
2022-12-18T01:32:05.440Z,42.7
2022-12-18T01:33:04.382Z,42.8
2022-12-18T01:34:04.391Z,42.8
2022-12-18T01:35:04.346Z,42.8
2022-12-18T01:36:04.365Z,42.8
2022-12-18T01:37:04.353Z,42.9
2022-12-18T01:38:04.426Z,42.9
2022-12-18T01:39:04.382Z,43.0
2022-12-18T01:40:04.396Z,43.0
2022-12-18T01:41:04.395Z,43.0
2022-12-18T01:42:04.462Z,43.0
2022-12-18T01:43:04.345Z,43.1
2022-12-18T01:44:04.416Z,43.2
2022-12-18T01:45:04.362Z,43.2
2022-12-18T01:46:04.446Z,43.3
2022-12-18T01:47:04.340Z,43.3
2022-12-18T01:48:04.409Z,43.3
2022-12-18T01:49:04.357Z,43.4
2022-12-18T01:50:04.402Z,43.4
2022-12-18T01:51:04.351Z,43.5
2022-12-18T01:52:05.401Z,43.5
2022-12-18T01:53:04.349Z,43.6
2022-12-18T01:54:04.384Z,43.6
2022-12-18T01:55:04.400Z,43.6
2022-12-18T01:56:04.453Z,43.7
2022-12-18T01:57:04.366Z,43.7
2022-12-18T01:58:04.397Z,43.8
2022-12-18T01:59:04.371Z,43.8
2022-12-18T02:00:04.415Z,43.9
2022-12-18T02:01:04.455Z,43.9
2022-12-18T02:02:04.691Z,43.9
2022-12-18T02:03:04.423Z,43.9
2022-12-18T02:04:04.404Z,44.0
2022-12-18T02:05:04.375Z,44.0
2022-12-18T02:06:04.406Z,44.0
2022-12-18T02:07:04.393Z,44.1
2022-12-18T02:08:04.421Z,44.1
2022-12-18T02:09:04.370Z,44.2
2022-12-18T02:10:04.392Z,44.2
2022-12-18T02:11:04.383Z,44.2
2022-12-18T02:12:05.391Z,44.3
2022-12-18T02:13:04.362Z,44.3
2022-12-18T02:14:04.438Z,44.3
2022-12-18T02:15:04.466Z,44.4
2022-12-18T02:16:04.516Z,44.4
2022-12-18T02:18:50.864Z,44.4
2022-12-18T02:18:55.730Z,46.7
2022-12-18T02:19:04.479Z,46.1
2022-12-18T02:20:04.540Z,44.8
2022-12-18T02:21:04.525Z,44.7
2022-12-18T02:22:05.466Z,44.7
2022-12-18T02:23:04.627Z,44.7
2022-12-18T02:24:05.215Z,44.6
2022-12-18T02:25:04.426Z,44.7
2022-12-18T02:26:04.460Z,44.7
2022-12-18T02:27:04.414Z,44.7
2022-12-18T02:28:04.464Z,44.7
2022-12-18T02:29:04.362Z,44.7
2022-12-18T02:30:04.407Z,44.8
2022-12-18T02:31:04.521Z,44.8
2022-12-18T02:32:05.442Z,44.8
2022-12-18T02:33:04.513Z,44.8
2022-12-18T02:34:04.434Z,44.9
2022-12-18T02:35:05.499Z,44.9
2022-12-18T02:36:04.416Z,44.9
2022-12-18T02:37:04.395Z,44.9
2022-12-18T02:38:04.461Z,44.9
2022-12-18T02:39:04.430Z,45.0
2022-12-18T02:40:04.413Z,45.0
2022-12-18T02:41:04.388Z,45.0
2022-12-18T02:42:05.417Z,45.0
2022-12-18T02:43:04.403Z,44.9
2022-12-18T02:44:04.451Z,44.9
2022-12-18T02:45:04.409Z,44.8
2022-12-18T02:46:04.517Z,44.7
2022-12-18T02:47:04.389Z,44.5
2022-12-18T02:48:04.376Z,44.4
2022-12-18T02:49:04.406Z,44.2
2022-12-18T02:50:04.407Z,44.0
2022-12-18T02:51:04.406Z,43.8
2022-12-18T02:52:05.434Z,43.6
2022-12-18T02:53:04.476Z,43.5
2022-12-18T02:54:04.523Z,43.3
2022-12-18T02:55:05.303Z,43.2
2022-12-18T02:56:04.422Z,43.0
2022-12-18T02:57:04.398Z,42.9
2022-12-18T02:58:04.410Z,42.8
2022-12-18T02:59:04.405Z,42.7
2022-12-18T03:00:04.374Z,42.6
2022-12-18T03:01:04.453Z,42.5
2022-12-18T03:02:05.563Z,42.5
2022-12-18T03:03:04.497Z,42.4
2022-12-18T03:04:04.397Z,42.4
2022-12-18T03:05:04.409Z,42.3
2022-12-18T03:06:04.503Z,42.3
2022-12-18T03:07:04.597Z,42.2
2022-12-18T03:08:04.434Z,42.2
2022-12-18T03:09:04.472Z,42.2
2022-12-18T03:10:04.372Z,42.2
2022-12-18T03:11:04.583Z,42.2
2022-12-18T03:14:06.426Z,43.3
2022-12-18T03:15:18.382Z,42.4
2022-12-18T03:16:04.363Z,42.3
2022-12-18T03:17:11.110Z,42.3
2022-12-18T03:18:03.899Z,42.2
2022-12-18T03:19:03.935Z,42.2
2022-12-18T03:20:03.906Z,42.2
2022-12-18T03:21:04.827Z,42.1
2022-12-18T03:22:03.893Z,42.2
2022-12-18T03:23:03.815Z,42.2
2022-12-18T03:24:03.784Z,42.2
2022-12-18T03:25:03.825Z,42.2
2022-12-18T03:26:07.458Z,42.2
2022-12-18T03:27:03.797Z,42.3
2022-12-18T03:28:03.787Z,42.3
2022-12-18T03:29:03.798Z,42.3
2022-12-18T03:30:03.850Z,42.3
2022-12-18T03:31:03.865Z,42.4
2022-12-18T03:32:03.817Z,42.4
2022-12-18T03:33:03.805Z,42.5
2022-12-18T03:34:03.848Z,42.5
2022-12-18T03:35:03.809Z,42.6
2022-12-18T03:36:03.783Z,42.6
2022-12-18T03:37:03.796Z,42.7
2022-12-18T03:38:03.793Z,42.7
2022-12-18T03:39:03.794Z,42.8
2022-12-18T03:40:03.792Z,42.9
2022-12-18T03:41:03.840Z,43.0
2022-12-18T03:42:03.922Z,43.0
2022-12-18T03:43:03.917Z,43.1
2022-12-18T03:44:03.969Z,43.1
2022-12-18T03:45:03.922Z,43.1
2022-12-18T03:46:03.951Z,43.2
2022-12-18T03:47:03.899Z,43.2
2022-12-18T03:48:03.817Z,43.2
2022-12-18T03:49:03.832Z,43.3
2022-12-18T03:50:08.323Z,43.3
2022-12-18T03:51:03.863Z,43.4
2022-12-18T03:52:03.804Z,43.4
2022-12-18T03:53:03.872Z,43.4
2022-12-18T03:54:03.808Z,43.4
2022-12-18T03:55:04.831Z,43.5
2022-12-18T03:56:03.834Z,43.5
2022-12-18T03:57:03.900Z,43.5
2022-12-18T03:58:03.823Z,43.5
2022-12-18T03:59:03.969Z,43.6
2022-12-18T04:00:03.911Z,43.6
2022-12-18T04:01:03.927Z,43.7
2022-12-18T04:02:04.023Z,43.7
2022-12-18T04:03:03.854Z,43.8
2022-12-18T04:04:03.845Z,43.8
2022-12-18T04:05:03.984Z,43.8
2022-12-18T04:06:03.968Z,43.8
2022-12-18T04:07:03.803Z,43.8
2022-12-18T04:08:04.936Z,43.8
2022-12-18T04:09:04.792Z,43.9
2022-12-18T04:10:03.906Z,43.9
2022-12-18T04:11:03.821Z,43.9
2022-12-18T04:12:03.807Z,43.9
2022-12-18T04:13:03.912Z,43.9
2022-12-18T04:14:07.042Z,44.0
2022-12-18T04:16:34.794Z,45.3
2022-12-18T04:17:04.876Z,44.5
2022-12-18T04:18:04.564Z,44.3
2022-12-18T04:19:06.736Z,44.3
2022-12-18T04:20:04.595Z,44.3
2022-12-18T04:21:04.557Z,44.3
2022-12-18T04:22:04.782Z,44.3
2022-12-18T04:23:05.022Z,44.4
2022-12-18T04:24:04.507Z,44.4
2022-12-18T04:25:04.615Z,44.4
2022-12-18T04:26:04.520Z,44.4
2022-12-18T04:27:04.554Z,44.5
2022-12-18T04:28:04.549Z,44.5
2022-12-18T04:29:04.530Z,44.5
2022-12-18T04:30:04.500Z,44.5
2022-12-18T04:31:04.630Z,44.5
2022-12-18T04:32:05.465Z,44.6
2022-12-18T04:33:04.549Z,44.6
2022-12-18T04:34:04.735Z,44.7
2022-12-18T04:35:04.562Z,44.7
2022-12-18T04:36:04.527Z,44.7
2022-12-18T04:37:04.541Z,44.7
2022-12-18T04:38:05.443Z,44.7
2022-12-18T04:39:04.695Z,44.8
2022-12-18T04:40:04.522Z,44.8
2022-12-18T04:41:04.537Z,44.8
2022-12-18T04:42:05.487Z,44.9
2022-12-18T04:43:04.940Z,45.0
2022-12-18T04:44:04.526Z,45.0
2022-12-18T04:45:04.568Z,45.0
2022-12-18T04:46:04.581Z,45.0
2022-12-18T04:47:04.553Z,45.1
2022-12-18T04:48:04.514Z,45.2
2022-12-18T04:49:04.794Z,45.1
2022-12-18T04:50:04.509Z,45.1
2022-12-18T04:51:04.534Z,45.2
2022-12-18T04:52:05.488Z,45.2
2022-12-18T04:53:04.576Z,45.2
2022-12-18T04:54:04.511Z,45.1
2022-12-18T04:55:04.633Z,45.1
2022-12-18T04:56:04.509Z,45.0
2022-12-18T04:57:04.550Z,44.8
2022-12-18T04:58:04.562Z,44.7
2022-12-18T04:59:04.532Z,44.5
2022-12-18T05:00:04.520Z,44.4
2022-12-18T05:01:04.473Z,44.2
2022-12-18T05:02:05.630Z,44.0
2022-12-18T05:03:04.470Z,43.9
2022-12-18T05:04:04.555Z,43.7
2022-12-18T05:05:04.425Z,43.5
2022-12-18T05:06:04.441Z,43.4
2022-12-18T05:07:04.488Z,43.2
2022-12-18T05:08:04.535Z,43.0
2022-12-18T05:09:04.419Z,43.0
2022-12-18T05:10:04.467Z,43.0
2022-12-18T05:11:04.527Z,43.0
2022-12-18T05:14:11.676Z,44.0
2022-12-18T05:15:04.333Z,43.0
2022-12-18T05:16:04.432Z,42.8
2022-12-18T05:17:04.365Z,42.7
2022-12-18T05:18:04.396Z,42.6
2022-12-18T05:19:04.321Z,42.4
2022-12-18T05:20:05.375Z,42.4
2022-12-18T05:21:04.336Z,42.3
2022-12-18T05:22:04.569Z,42.2
2022-12-18T05:23:04.351Z,42.1
2022-12-18T05:24:04.369Z,42.0
2022-12-18T05:25:04.336Z,41.9
2022-12-18T05:26:04.523Z,41.9
2022-12-18T05:27:04.424Z,41.8
2022-12-18T05:28:04.474Z,41.7
2022-12-18T05:29:04.346Z,41.6
2022-12-18T05:30:04.366Z,41.6
2022-12-18T05:31:04.472Z,41.5
2022-12-18T05:32:05.369Z,41.4
2022-12-18T05:33:04.311Z,41.3
2022-12-18T05:34:04.340Z,41.2
2022-12-18T05:35:04.323Z,41.2
2022-12-18T05:36:04.348Z,41.1
2022-12-18T05:37:04.331Z,41.1
2022-12-18T05:38:04.469Z,41.0
2022-12-18T05:39:04.367Z,40.9
2022-12-18T05:40:04.335Z,40.9
2022-12-18T05:41:04.332Z,40.9
2022-12-18T05:42:04.522Z,40.8
2022-12-18T05:43:04.326Z,40.7
2022-12-18T05:44:05.262Z,40.7
2022-12-18T05:45:04.348Z,40.7
2022-12-18T05:46:04.346Z,40.6
2022-12-18T05:47:04.400Z,40.6
2022-12-18T05:48:04.368Z,40.5
2022-12-18T05:49:04.313Z,40.5
2022-12-18T05:50:04.458Z,40.4
2022-12-18T05:51:04.351Z,40.4
2022-12-18T05:52:04.506Z,40.4
2022-12-18T05:53:04.341Z,40.3
2022-12-18T05:54:04.343Z,40.3
2022-12-18T05:55:04.322Z,40.2
2022-12-18T05:56:04.361Z,40.2
2022-12-18T05:57:04.315Z,40.2
2022-12-18T05:58:04.345Z,40.1
2022-12-18T05:59:04.353Z,40.1
2022-12-18T06:00:04.346Z,40.1
2022-12-18T06:01:04.315Z,40.0
2022-12-18T06:02:04.628Z,40.0
2022-12-18T06:03:04.478Z,40.0
2022-12-18T06:04:04.424Z,39.9
2022-12-18T06:05:04.324Z,39.9
2022-12-18T06:06:04.342Z,39.9
2022-12-18T06:07:04.375Z,39.9
2022-12-18T06:08:11.155Z,39.9
2022-12-18T06:09:10.612Z,39.8
2022-12-18T06:10:04.360Z,39.8
2022-12-18T06:11:04.359Z,39.8
2022-12-18T06:12:11.144Z,39.8
2022-12-18T06:13:10.606Z,39.7
2022-12-18T06:14:04.331Z,39.7
2022-12-18T06:15:04.300Z,39.7
2022-12-18T06:16:04.439Z,39.6
2022-12-18T06:17:04.380Z,39.6
2022-12-18T06:18:04.358Z,39.6
2022-12-18T06:19:04.374Z,39.6
2022-12-18T06:20:04.334Z,39.5
2022-12-18T06:21:04.313Z,39.5
2022-12-18T06:22:04.510Z,39.5
2022-12-18T06:23:04.293Z,39.4
2022-12-18T06:24:04.319Z,39.4
2022-12-18T06:25:04.367Z,39.4
2022-12-18T06:26:04.372Z,39.4
2022-12-18T06:27:04.329Z,39.4
2022-12-18T06:28:04.339Z,39.3
2022-12-18T06:29:04.312Z,39.3
2022-12-18T06:30:04.396Z,39.3
2022-12-18T06:31:04.388Z,39.3
2022-12-18T06:32:04.563Z,39.3
2022-12-18T06:33:04.297Z,39.2
2022-12-18T06:34:04.325Z,39.2
2022-12-18T06:35:04.298Z,39.2
2022-12-18T06:36:04.341Z,39.2
2022-12-18T06:37:04.335Z,39.1
2022-12-18T06:38:04.340Z,39.1
2022-12-18T06:39:04.323Z,39.1
2022-12-18T06:40:04.353Z,39.1
2022-12-18T06:41:04.305Z,39.0
2022-12-18T06:42:04.570Z,39.1
2022-12-18T06:43:04.348Z,39.0
2022-12-18T06:44:04.340Z,39.0
2022-12-18T06:45:04.308Z,39.0
2022-12-18T06:46:04.418Z,39.0
2022-12-18T06:47:04.307Z,38.9
2022-12-18T06:48:04.339Z,38.9
2022-12-18T06:49:04.372Z,38.9
2022-12-18T06:50:04.336Z,38.9
2022-12-18T06:51:04.318Z,38.9
2022-12-18T06:52:04.580Z,38.8
2022-12-18T06:53:04.339Z,38.8
2022-12-18T06:54:04.381Z,38.8
2022-12-18T06:55:04.352Z,38.8
2022-12-18T06:56:09.394Z,38.8
2022-12-18T06:57:04.320Z,38.7
2022-12-18T06:58:04.335Z,38.6
2022-12-18T06:59:04.329Z,38.7
2022-12-18T07:01:38.115Z,39.7
2022-12-18T07:02:03.982Z,39.0
2022-12-18T07:03:03.972Z,38.8
2022-12-18T07:04:04.016Z,38.7
2022-12-18T07:05:10.272Z,38.6
2022-12-18T07:06:04.027Z,38.6
2022-12-18T07:07:04.093Z,38.5
2022-12-18T07:08:03.978Z,38.5
2022-12-18T07:09:03.936Z,38.5
2022-12-18T07:10:04.168Z,38.4
2022-12-18T07:11:03.938Z,38.4
2022-12-18T07:12:04.485Z,38.4
2022-12-18T07:13:04.005Z,38.4
2022-12-18T07:14:03.955Z,38.3
2022-12-18T07:15:03.940Z,38.4
2022-12-18T07:16:04.005Z,38.3
2022-12-18T07:17:04.002Z,38.3
2022-12-18T07:18:03.972Z,38.3
2022-12-18T07:19:03.972Z,38.3
2022-12-18T07:20:03.983Z,38.3
2022-12-18T07:21:03.949Z,38.2
2022-12-18T07:22:03.961Z,38.2
2022-12-18T07:23:03.937Z,38.2
2022-12-18T07:24:03.986Z,38.2
2022-12-18T07:25:03.951Z,38.2
2022-12-18T07:26:03.959Z,38.1
2022-12-18T07:27:03.948Z,38.1
2022-12-18T07:28:04.005Z,38.1
2022-12-18T07:29:03.938Z,38.1
2022-12-18T07:30:03.989Z,38.1
2022-12-18T07:31:03.956Z,38.1
2022-12-18T07:32:04.055Z,38.0
2022-12-18T07:33:03.936Z,38.0
2022-12-18T07:34:03.966Z,38.0
2022-12-18T07:35:03.945Z,38.0
2022-12-18T07:36:03.970Z,38.0
2022-12-18T07:37:04.015Z,38.0
2022-12-18T07:38:03.989Z,38.0
2022-12-18T07:39:05.042Z,38.0
2022-12-18T07:40:04.084Z,37.9
2022-12-18T07:41:05.069Z,37.9
2022-12-18T07:42:04.173Z,37.9
2022-12-18T07:43:05.500Z,37.9
2022-12-18T07:44:03.974Z,37.9
2022-12-18T07:45:03.937Z,37.9
2022-12-18T07:46:04.036Z,37.9
2022-12-18T07:47:06.635Z,37.8
2022-12-18T07:48:04.048Z,37.8
2022-12-18T07:49:03.990Z,37.8
2022-12-18T07:50:03.994Z,37.8
2022-12-18T07:51:03.951Z,37.7
2022-12-18T07:52:03.974Z,37.7
2022-12-18T07:53:03.958Z,37.7
2022-12-18T07:54:03.980Z,37.7
2022-12-18T07:55:03.994Z,37.7
2022-12-18T07:58:45.298Z,38.8
2022-12-18T07:59:04.102Z,38.2
2022-12-18T08:00:04.077Z,37.9
2022-12-18T08:01:04.189Z,37.8
2022-12-18T08:02:04.168Z,37.7
2022-12-18T08:03:04.139Z,37.6
2022-12-18T08:04:04.096Z,37.6
2022-12-18T08:05:04.108Z,37.6
2022-12-18T08:06:04.088Z,37.6
2022-12-18T08:07:04.126Z,37.5
2022-12-18T08:08:04.106Z,37.5
2022-12-18T08:09:04.368Z,37.5
2022-12-18T08:10:04.083Z,37.5
2022-12-18T08:11:04.114Z,37.5
2022-12-18T08:12:04.097Z,37.4
2022-12-18T08:13:05.205Z,37.4
2022-12-18T08:14:04.092Z,37.5
2022-12-18T08:15:04.133Z,37.4
2022-12-18T08:16:04.072Z,37.4
2022-12-18T08:17:04.145Z,37.4
2022-12-18T08:18:04.068Z,37.4
2022-12-18T08:19:04.166Z,37.4
2022-12-18T08:20:04.080Z,37.4
2022-12-18T08:21:04.112Z,37.4
2022-12-18T08:22:04.109Z,37.4
2022-12-18T08:23:04.101Z,37.4
2022-12-18T08:24:04.068Z,37.3
2022-12-18T08:25:04.137Z,37.3
2022-12-18T08:26:04.066Z,37.3
2022-12-18T08:27:28.457Z,37.3
2022-12-18T08:28:04.238Z,37.4
2022-12-18T08:29:04.120Z,37.3
2022-12-18T08:30:04.071Z,37.3
2022-12-18T08:31:04.163Z,37.3
2022-12-18T08:32:04.149Z,37.3
2022-12-18T08:33:04.990Z,37.2
2022-12-18T08:34:04.067Z,37.2
2022-12-18T08:35:04.117Z,37.2
2022-12-18T08:36:04.088Z,37.2
2022-12-18T08:37:04.116Z,37.2
2022-12-18T08:38:04.069Z,37.2
2022-12-18T08:39:04.096Z,37.1
2022-12-18T08:40:04.077Z,37.2
2022-12-18T08:41:04.149Z,37.2
2022-12-18T08:42:09.761Z,37.1
2022-12-18T08:43:04.177Z,37.2
2022-12-18T08:44:04.071Z,37.1
2022-12-18T08:45:04.131Z,37.1
2022-12-18T08:48:01.977Z,38.1
2022-12-18T08:48:06.006Z,38.0
2022-12-18T08:49:04.968Z,37.2
2022-12-18T08:50:05.028Z,37.2
2022-12-18T08:51:04.970Z,37.2
2022-12-18T08:52:04.995Z,37.1
2022-12-18T08:53:04.990Z,37.1
2022-12-18T08:54:06.415Z,37.1
2022-12-18T08:55:04.962Z,37.0
2022-12-18T08:56:05.011Z,37.0
2022-12-18T08:57:05.080Z,37.0
2022-12-18T08:58:05.103Z,37.0
2022-12-18T08:59:04.973Z,37.0
2022-12-18T09:00:05.344Z,37.0
2022-12-18T09:01:05.132Z,37.2
2022-12-18T09:02:05.243Z,37.2
2022-12-18T09:03:05.035Z,37.5
2022-12-18T09:04:05.023Z,37.6
2022-12-18T09:05:05.021Z,37.9
2022-12-18T09:06:05.041Z,37.8
2022-12-18T09:07:04.980Z,37.9
2022-12-18T09:08:05.088Z,37.9
2022-12-18T09:09:05.063Z,37.8
2022-12-18T09:10:05.015Z,37.9
2022-12-18T09:11:04.990Z,37.9
2022-12-18T09:12:05.121Z,38.0
2022-12-18T09:13:04.978Z,38.2
2022-12-18T09:14:04.995Z,38.3
2022-12-18T09:15:04.980Z,38.3
2022-12-18T09:16:05.006Z,38.4
2022-12-18T09:17:05.045Z,38.5
2022-12-18T09:18:05.068Z,38.4
2022-12-18T09:19:04.977Z,38.4
2022-12-18T09:20:05.014Z,38.4
2022-12-18T09:21:04.985Z,38.4
2022-12-18T09:22:04.990Z,38.5
2022-12-18T09:23:04.985Z,38.4
2022-12-18T09:24:05.067Z,38.3
2022-12-18T09:25:05.003Z,38.3
2022-12-18T09:26:05.007Z,38.2
2022-12-18T09:27:04.984Z,38.1
2022-12-18T09:28:05.907Z,38.0
2022-12-18T09:29:05.031Z,38.0
2022-12-18T09:30:05.043Z,38.0
2022-12-18T09:31:05.020Z,38.1
2022-12-18T09:32:05.004Z,38.1
2022-12-18T09:33:04.991Z,38.1
2022-12-18T09:34:05.019Z,38.2
2022-12-18T09:35:04.983Z,38.2
2022-12-18T09:36:05.063Z,38.2
2022-12-18T09:37:04.993Z,38.2
2022-12-18T09:38:05.038Z,38.2
2022-12-18T09:39:08.190Z,38.2
2022-12-18T09:40:05.027Z,38.2
2022-12-18T09:41:05.000Z,38.2
2022-12-18T09:42:05.070Z,38.2
2022-12-18T09:43:04.985Z,38.2
2022-12-18T09:44:05.008Z,38.2
2022-12-18T09:45:05.053Z,38.2
2022-12-18T09:46:05.071Z,38.2
2022-12-18T09:47:04.982Z,38.2
2022-12-18T09:48:05.092Z,38.1
2022-12-18T09:49:05.010Z,38.1
2022-12-18T09:50:05.096Z,38.1
2022-12-18T09:51:04.997Z,38.0
2022-12-18T09:52:05.029Z,38.0
2022-12-18T09:53:04.987Z,38.0
2022-12-18T09:54:05.041Z,38.0
2022-12-18T09:55:05.007Z,38.0
2022-12-18T09:56:05.009Z,38.1
2022-12-18T09:57:04.990Z,38.1
2022-12-18T09:58:05.012Z,38.1
2022-12-18T09:59:04.983Z,38.1
2022-12-18T10:00:05.035Z,38.2
2022-12-18T10:01:05.113Z,38.2
2022-12-18T10:02:05.087Z,38.3
2022-12-18T10:03:31.459Z,39.0
2022-12-18T10:04:04.212Z,38.4
2022-12-18T10:05:04.902Z,38.4
2022-12-18T10:06:04.283Z,38.4
2022-12-18T10:07:08.999Z,38.4
2022-12-18T10:08:04.335Z,38.4
2022-12-18T10:09:04.216Z,38.4
2022-12-18T10:10:04.225Z,38.3
2022-12-18T10:11:04.175Z,38.3
2022-12-18T10:12:04.247Z,38.3
2022-12-18T10:13:04.929Z,38.3
2022-12-18T10:14:04.196Z,38.3
2022-12-18T10:15:04.174Z,38.3
2022-12-18T10:16:04.528Z,38.3
2022-12-18T10:17:04.180Z,38.3
2022-12-18T10:18:04.277Z,38.3
2022-12-18T10:19:04.186Z,38.3
2022-12-18T10:20:04.205Z,38.3
2022-12-18T10:21:04.185Z,38.3
2022-12-18T10:22:04.249Z,38.3
2022-12-18T10:23:04.200Z,38.3
2022-12-18T10:24:04.253Z,38.3
2022-12-18T10:25:04.219Z,38.3
2022-12-18T10:26:04.349Z,38.3
2022-12-18T10:27:04.208Z,38.4
2022-12-18T10:28:04.220Z,38.3
2022-12-18T10:29:05.849Z,38.3
2022-12-18T10:30:04.275Z,38.3
2022-12-18T10:31:04.278Z,38.3
2022-12-18T10:32:04.376Z,38.3
2022-12-18T10:33:04.231Z,38.3
2022-12-18T10:34:04.235Z,38.3
2022-12-18T10:35:04.279Z,38.3
2022-12-18T10:36:04.228Z,38.3
2022-12-18T10:37:04.303Z,38.3
2022-12-18T10:38:04.369Z,38.3
2022-12-18T10:39:04.317Z,38.3
2022-12-18T10:40:04.448Z,38.2
2022-12-18T10:41:04.201Z,38.2
2022-12-18T10:42:04.240Z,38.2
2022-12-18T10:43:04.242Z,38.2
2022-12-18T10:44:04.906Z,38.1
2022-12-18T10:45:04.198Z,38.1
2022-12-18T10:46:04.295Z,38.1
2022-12-18T10:47:07.468Z,38.1
2022-12-18T10:49:54.064Z,38.1
2022-12-18T10:49:58.084Z,39.8
2022-12-18T10:50:04.222Z,39.5
2022-12-18T10:51:13.325Z,36.9
2022-12-18T10:52:19.006Z,37.7
2022-12-18T10:53:04.426Z,37.8
2022-12-18T10:54:04.514Z,37.7
2022-12-18T10:55:04.788Z,37.7
2022-12-18T10:56:04.280Z,37.6
2022-12-18T10:57:04.240Z,37.6
2022-12-18T10:58:04.237Z,37.6
2022-12-18T10:59:04.214Z,37.6
2022-12-18T11:00:04.217Z,37.6
2022-12-18T11:01:04.258Z,37.6
2022-12-18T11:02:04.300Z,37.5
2022-12-18T11:03:04.489Z,37.4
2022-12-18T11:04:04.263Z,37.8
2022-12-18T11:05:04.214Z,37.7
2022-12-18T11:06:04.253Z,37.7
2022-12-18T11:07:04.251Z,37.7
2022-12-18T11:08:04.264Z,37.7
2022-12-18T11:09:09.355Z,37.8
2022-12-18T11:10:04.240Z,37.8
2022-12-18T11:11:04.226Z,37.8
2022-12-18T11:12:04.266Z,37.8
2022-12-18T11:13:04.294Z,37.8
2022-12-18T11:14:04.302Z,37.8
2022-12-18T11:15:04.205Z,37.8
2022-12-18T11:16:04.472Z,37.8
2022-12-18T11:17:26.257Z,37.7
2022-12-18T11:18:04.585Z,37.8
2022-12-18T11:19:04.275Z,37.8
2022-12-18T11:20:04.258Z,37.7
2022-12-18T11:21:04.240Z,37.7
2022-12-18T11:22:04.333Z,37.7
2022-12-18T11:23:04.211Z,37.7
2022-12-18T11:24:05.286Z,37.8
2022-12-18T11:25:34.536Z,37.7
2022-12-18T11:26:04.267Z,37.9
2022-12-18T11:27:04.210Z,37.7
2022-12-18T11:28:04.267Z,37.8
2022-12-18T11:29:04.214Z,37.7
2022-12-18T11:30:04.262Z,37.7
2022-12-18T11:31:04.275Z,37.6
2022-12-18T11:32:04.274Z,37.6
2022-12-18T11:33:04.216Z,37.6
2022-12-18T11:34:28.173Z,37.5
2022-12-18T11:35:04.293Z,37.7
2022-12-18T11:36:04.266Z,37.5
2022-12-18T11:37:04.225Z,37.5
2022-12-18T11:38:04.246Z,37.5
2022-12-18T11:39:04.223Z,37.5
2022-12-18T11:40:04.264Z,37.5
2022-12-18T11:41:04.272Z,37.6
2022-12-18T11:42:04.577Z,37.5
2022-12-18T11:43:04.216Z,37.4
2022-12-18T11:44:04.239Z,37.4
2022-12-18T11:45:04.258Z,37.4
2022-12-18T11:46:04.293Z,37.3
2022-12-18T11:47:04.387Z,37.3
2022-12-18T11:48:04.285Z,37.3
2022-12-18T11:49:04.225Z,37.4
2022-12-18T11:50:04.260Z,37.4
2022-12-18T11:51:04.351Z,37.4
2022-12-18T11:52:04.295Z,37.4
2022-12-18T11:53:06.181Z,37.4
2022-12-18T11:55:46.678Z,38.1
2022-12-18T11:56:04.368Z,37.5
2022-12-18T11:57:05.049Z,37.2
2022-12-18T11:58:05.388Z,37.0
2022-12-18T11:59:05.300Z,36.9
2022-12-18T12:00:04.456Z,36.9
2022-12-18T12:01:04.396Z,36.9
2022-12-18T12:02:04.484Z,36.9
2022-12-18T12:03:04.469Z,36.9
2022-12-18T12:04:05.315Z,36.9
2022-12-18T12:05:05.443Z,36.9
2022-12-18T12:06:04.372Z,36.9
2022-12-18T12:07:04.423Z,36.9
2022-12-18T12:08:04.354Z,36.9
2022-12-18T12:09:04.359Z,37.0
2022-12-18T12:10:05.489Z,37.0
2022-12-18T12:11:04.424Z,37.2
2022-12-18T12:12:04.617Z,37.2
2022-12-18T12:13:04.370Z,37.1
2022-12-18T12:14:04.382Z,37.0
2022-12-18T12:15:04.390Z,37.1
2022-12-18T12:16:04.420Z,37.1
2022-12-18T12:17:04.519Z,37.1
2022-12-18T12:18:09.604Z,37.1
2022-12-18T12:19:04.416Z,37.1
2022-12-18T12:20:04.430Z,37.1
2022-12-18T12:21:04.341Z,37.1
2022-12-18T12:22:04.386Z,37.1
2022-12-18T12:23:04.824Z,37.1
2022-12-18T12:24:04.363Z,37.1
2022-12-18T12:25:04.411Z,37.1
2022-12-18T12:26:04.978Z,37.1
2022-12-18T12:27:04.393Z,37.1
2022-12-18T12:28:04.361Z,37.1
2022-12-18T12:29:05.318Z,37.1
2022-12-18T12:30:04.361Z,37.2
2022-12-18T12:31:04.464Z,37.2
2022-12-18T12:32:04.471Z,37.3
2022-12-18T12:33:04.454Z,37.3
2022-12-18T12:34:05.533Z,37.3
2022-12-18T12:35:09.276Z,37.3
2022-12-18T12:36:04.828Z,37.4
2022-12-18T12:37:05.419Z,37.4
2022-12-18T12:38:04.475Z,37.3
2022-12-18T12:39:04.410Z,37.4
2022-12-18T12:40:15.277Z,37.4
2022-12-18T12:41:04.499Z,37.6
2022-12-18T12:42:04.431Z,37.5
2022-12-18T12:43:04.377Z,37.4
2022-12-18T12:44:04.354Z,37.4
2022-12-18T12:45:04.397Z,37.4
2022-12-18T12:46:04.429Z,37.4
2022-12-18T12:49:06.803Z,38.5
2022-12-18T12:50:04.321Z,37.7
2022-12-18T12:51:04.263Z,37.6
2022-12-18T12:52:05.498Z,37.5
2022-12-18T12:53:04.511Z,37.6
2022-12-18T12:54:04.303Z,37.6
2022-12-18T12:55:09.050Z,37.5
2022-12-18T12:56:04.728Z,37.5
2022-12-18T12:57:04.285Z,37.5
2022-12-18T12:58:04.325Z,37.4
2022-12-18T12:59:04.281Z,37.4
2022-12-18T13:00:05.215Z,37.4
2022-12-18T13:01:04.415Z,37.4
2022-12-18T13:02:04.366Z,37.4
2022-12-18T13:03:04.322Z,37.3
2022-12-18T13:04:04.482Z,37.3
2022-12-18T13:05:04.275Z,37.4
2022-12-18T13:06:04.335Z,37.4
2022-12-18T13:07:04.321Z,37.5
2022-12-18T13:08:04.344Z,37.4
2022-12-18T13:09:04.365Z,37.4
2022-12-18T13:10:04.296Z,37.4
2022-12-18T13:11:04.293Z,37.4
2022-12-18T13:12:04.317Z,37.4
2022-12-18T13:13:05.423Z,37.4
2022-12-18T13:14:04.313Z,37.3
2022-12-18T13:15:08.791Z,37.2
2022-12-18T13:16:04.320Z,37.2
2022-12-18T13:17:04.484Z,37.2
2022-12-18T13:18:04.307Z,37.1
2022-12-18T13:19:04.315Z,37.0
2022-12-18T13:20:04.317Z,37.0
2022-12-18T13:21:04.333Z,37.0
2022-12-18T13:22:04.299Z,37.0
2022-12-18T13:23:04.318Z,37.0
2022-12-18T13:24:04.313Z,36.9
2022-12-18T13:25:04.436Z,36.9
2022-12-18T13:26:04.344Z,37.0
2022-12-18T13:27:04.320Z,36.9
2022-12-18T13:28:04.342Z,36.9
2022-12-18T13:29:04.282Z,36.9
2022-12-18T13:30:05.214Z,36.9
2022-12-18T13:31:04.434Z,36.9